createdAt,value
2019-02-07T00:00:21.907Z,99902.13
2019-02-07T00:02:55.460Z,99907.09
2019-02-07T00:05:29.236Z,99890.69
2019-02-07T00:08:02.470Z,99893.87
2019-02-07T00:10:35.246Z,99886.91
2019-02-07T00:13:09.422Z,99884.47
2019-02-07T00:15:46.701Z,99884.31
2019-02-07T00:18:20.956Z,99886.95
2019-02-07T00:20:55.238Z,99869.33
2019-02-07T00:23:30.464Z,99868.91
2019-02-07T00:26:05.310Z,99866.38
2019-02-07T00:28:38.713Z,99865.02
2019-02-07T00:31:13.035Z,99846.59
2019-02-07T00:33:45.869Z,99848.13
2019-02-07T00:36:18.959Z,99836.73
2019-02-07T00:38:52.672Z,99838.20
2019-02-07T00:41:25.588Z,99832.45
2019-02-07T00:43:58.803Z,99825.50
2019-02-07T00:46:32.658Z,99808.42
2019-02-07T00:49:06.264Z,99809.30
2019-02-07T00:51:38.996Z,99804.98
2019-02-07T00:54:12.375Z,99798.38
2019-02-07T00:56:45.137Z,99791.84
2019-02-07T00:59:17.999Z,99789.20
2019-02-07T01:01:54.122Z,99781.61
2019-02-07T01:04:29.060Z,99771.46
2019-02-07T01:07:03.717Z,99772.40
2019-02-07T01:09:36.819Z,99774.33
2019-02-07T01:12:09.830Z,99768.98
2019-02-07T01:14:42.503Z,99771.77
2019-02-07T01:17:15.926Z,99760.41
2019-02-07T01:19:48.792Z,99763.21
2019-02-07T01:22:21.719Z,99751.73
2019-02-07T01:24:55.471Z,99749.55
2019-02-07T01:27:29.111Z,99739.64
2019-02-07T01:30:03.616Z,99731.26
2019-02-07T01:32:37.925Z,99732.77
2019-02-07T01:35:10.784Z,99726.50
2019-02-07T01:37:43.478Z,99723.50
2019-02-07T01:40:18.676Z,99715.34
2019-02-07T01:42:52.219Z,99712.88
2019-02-07T01:45:25.062Z,99708.69
2019-02-07T01:47:58.340Z,99707.07
2019-02-07T01:50:31.088Z,99701.17
2019-02-07T01:53:04.234Z,99699.53
2019-02-07T01:55:37.520Z,99689.86
2019-02-07T01:58:10.221Z,99690.06
2019-02-07T02:00:43.097Z,99686.66
2019-02-07T02:03:17.677Z,99685.60
2019-02-07T02:05:50.471Z,99674.44
2019-02-07T02:08:24.328Z,99674.39
2019-02-07T02:10:58.039Z,99672.95
2019-02-07T02:13:30.796Z,99652.58
2019-02-07T02:16:03.718Z,99668.69
2019-02-07T02:18:37.013Z,99652.58
2019-02-07T02:21:10.976Z,99656.22
2019-02-07T02:23:43.895Z,99660.23
2019-02-07T02:26:18.261Z,99645.26
2019-02-07T02:28:51.917Z,99636.22
2019-02-07T02:31:24.600Z,99634.04
2019-02-07T02:33:58.042Z,99635.05
2019-02-07T02:36:30.911Z,99619.12
2019-02-07T02:39:09.394Z,99613.10
2019-02-07T02:41:42.140Z,99611.61
2019-02-07T02:44:15.390Z,99610.31
2019-02-07T02:46:48.079Z,99602.96
2019-02-07T02:49:21.131Z,99607.19
2019-02-07T02:51:54.464Z,99606.87
2019-02-07T02:54:36.010Z,99593.47
2019-02-07T02:57:08.774Z,99597.03
2019-02-07T02:59:43.030Z,99586.49
2019-02-07T03:02:34.128Z,99591.33
2019-02-07T03:05:18.951Z,99586.42
2019-02-07T03:08:17.167Z,99590.88
2019-02-07T03:10:56.334Z,99570.15
2019-02-07T03:13:49.356Z,99560.77
2019-02-07T03:16:27.996Z,99560.83
2019-02-07T03:19:13.832Z,99559.86
2019-02-07T03:21:55.554Z,99546.64
2019-02-07T03:24:34.193Z,99540.91
2019-02-07T03:27:33.492Z,99539.73
2019-02-07T03:30:31.346Z,99537.72
2019-02-07T03:33:30.814Z,99533.73
2019-02-07T03:36:29.628Z,99509.36
2019-02-07T03:39:17.353Z,99502.52
2019-02-07T03:42:09.593Z,99500.63
2019-02-07T03:44:58.966Z,99503.25
2019-02-07T03:47:38.916Z,99491.13
2019-02-07T03:50:17.640Z,99488.13
2019-02-07T03:53:09.873Z,99489.03
2019-02-07T03:56:14.195Z,99472.12
2019-02-07T03:59:20.975Z,99474.27
2019-02-07T04:02:17.522Z,99464.78
2019-02-07T04:05:24.500Z,99465.66
2019-02-07T04:08:03.325Z,99457.98
2019-02-07T04:10:48.866Z,99458.69
2019-02-07T04:13:43.192Z,99456.72
2019-02-07T04:16:39.855Z,99450.29
2019-02-07T04:19:18.187Z,99437.48
2019-02-07T04:22:01.880Z,99440.64
2019-02-07T04:24:54.326Z,99436.30
2019-02-07T04:27:49.687Z,99435.58
2019-02-07T04:30:28.305Z,99431.88
2019-02-07T04:33:06.597Z,99428.53
2019-02-07T04:35:51.330Z,99428.05
2019-02-07T04:38:29.498Z,99428.21
2019-02-07T04:41:27.611Z,99427.84
2019-02-07T04:44:13.354Z,99427.66
2019-02-07T04:47:05.540Z,99427.22
2019-02-07T04:49:55.377Z,99420.27
2019-02-07T04:52:46.945Z,99403.95
2019-02-07T04:55:46.507Z,99408.23
2019-02-07T04:58:28.505Z,99400.97
2019-02-07T05:01:07.013Z,99396.19
2019-02-07T05:03:51.636Z,99403.95
2019-02-07T05:06:37.473Z,99384.21
2019-02-07T05:09:24.230Z,99393.78
2019-02-07T05:12:02.346Z,99380.59
2019-02-07T05:14:59.282Z,99374.73
2019-02-07T05:17:37.560Z,99378.84
2019-02-07T05:20:27.582Z,99384.67
2019-02-07T05:23:06.200Z,99377.20
2019-02-07T05:25:59.367Z,99356.48
2019-02-07T05:28:41.769Z,99361.36
2019-02-07T05:31:31.545Z,99356.03
2019-02-07T05:34:21.625Z,99345.59
2019-02-07T05:37:00.188Z,99329.09
2019-02-07T05:39:38.417Z,99342.48
2019-02-07T05:42:16.899Z,99348.31
2019-02-07T05:45:10.391Z,99334.70
2019-02-07T05:48:10.717Z,99331.73
2019-02-07T05:51:08.764Z,99335.58
2019-02-07T05:54:04.011Z,99327.70
2019-02-07T05:56:49.898Z,99299.74
2019-02-07T05:59:28.272Z,99300.55
2019-02-07T06:02:12.527Z,99301.83
2019-02-07T06:05:08.027Z,99290.30
2019-02-07T06:08:06.158Z,99279.67
2019-02-07T06:10:48.410Z,99264.30
2019-02-07T06:13:43.103Z,99269.45
2019-02-07T06:16:37.596Z,99262.86
2019-02-07T06:19:30.150Z,99259.44
2019-02-07T06:22:24.532Z,99263.21
2019-02-07T06:25:09.367Z,99261.64
2019-02-07T06:28:02.878Z,99267.14
2019-02-07T06:31:03.591Z,99260.59
2019-02-07T06:33:59.676Z,99261.70
2019-02-07T06:36:41.781Z,99268.30
2019-02-07T06:39:20.252Z,99258.11
2019-02-07T06:42:07.465Z,99260.20
2019-02-07T06:44:56.428Z,99261.02
2019-02-07T06:47:46.205Z,99250.36
2019-02-07T06:50:26.182Z,99261.16
2019-02-07T06:53:19.215Z,99257.87
2019-02-07T06:55:59.671Z,99253.83
2019-02-07T06:58:46.895Z,99262.67
2019-02-07T07:01:34.332Z,99258.48
2019-02-07T07:04:33.122Z,99260.33
2019-02-07T07:07:39.899Z,99268.23
2019-02-07T07:10:29.422Z,99258.61
2019-02-07T07:13:08.749Z,99245.70
2019-02-07T07:15:46.807Z,99259.33
2019-02-07T07:18:44.889Z,99259.81
2019-02-07T07:21:50.234Z,99250.30
2019-02-07T07:24:45.953Z,99255.30
2019-02-07T07:27:39.216Z,99258.43
2019-02-07T07:30:45.994Z,99253.61
2019-02-07T07:33:43.721Z,99248.42
2019-02-07T07:36:30.537Z,99248.86
2019-02-07T07:39:26.198Z,99246.45
2019-02-07T07:42:18.840Z,99253.66
2019-02-07T07:44:58.492Z,99246.92
2019-02-07T07:47:37.524Z,99250.98
2019-02-07T07:50:36.514Z,99243.72
2019-02-07T07:53:19.735Z,99256.95
2019-02-07T07:56:01.904Z,99238.97
2019-02-07T07:58:58.886Z,99250.56
2019-02-07T08:01:37.012Z,99241.04
2019-02-07T08:04:17.335Z,99254.42
2019-02-07T08:07:01.605Z,99251.28
2019-02-07T08:09:59.778Z,99252.75
2019-02-07T08:12:50.393Z,99261.25
2019-02-07T08:15:33.611Z,99263.15
2019-02-07T08:18:24.826Z,99261.84
2019-02-07T08:21:04.193Z,99259.09
2019-02-07T08:23:58.447Z,99252.31
2019-02-07T08:26:52.693Z,99261.23
2019-02-07T08:29:36.654Z,99263.70
2019-02-07T08:32:22.464Z,99275.96
2019-02-07T08:35:09.994Z,99271.20
2019-02-07T08:37:58.163Z,99268.22
2019-02-07T08:40:52.420Z,99275.55
2019-02-07T08:43:51.620Z,99277.76
2019-02-07T08:46:44.476Z,99278.25
2019-02-07T08:49:35.276Z,99277.37
2019-02-07T08:52:22.346Z,99289.01
2019-02-07T08:55:16.334Z,99284.30
2019-02-07T08:58:10.763Z,99285.36
2019-02-07T09:01:05.263Z,99298.91
2019-02-07T09:03:55.405Z,99302.06
2019-02-07T09:06:47.889Z,99314.30
2019-02-07T09:09:38.328Z,99297.06
2019-02-07T09:12:24.173Z,99305.23
2019-02-07T09:15:08.180Z,99300.59
2019-02-07T09:17:52.475Z,99310.62
2019-02-07T09:20:44.710Z,99316.37
2019-02-07T09:23:49.950Z,99311.24
2019-02-07T09:26:43.113Z,99316.50
2019-02-07T09:29:35.408Z,99317.52
2019-02-07T09:32:24.984Z,99320.54
2019-02-07T09:35:09.488Z,99335.70
2019-02-07T09:37:57.182Z,99329.41
2019-02-07T09:40:52.022Z,99330.41
2019-02-07T09:43:34.021Z,99325.72
2019-02-07T09:46:27.868Z,99322.91
2019-02-07T09:49:15.629Z,99326.22
2019-02-07T09:52:12.789Z,99337.37
2019-02-07T09:55:12.748Z,99334.08
2019-02-07T09:58:07.907Z,99333.78
2019-02-07T10:00:59.415Z,99343.76
2019-02-07T10:03:38.465Z,99343.73
2019-02-07T10:06:21.507Z,99354.02
2019-02-07T10:09:01.065Z,99352.94
2019-02-07T10:11:41.588Z,99344.09
2019-02-07T10:14:20.096Z,99349.80
2019-02-07T10:17:16.034Z,99351.92
2019-02-07T10:20:10.521Z,99346.40
2019-02-07T10:23:23.648Z,99356.39
2019-02-07T10:26:05.394Z,99360.78
2019-02-07T10:28:54.611Z,99367.69
2019-02-07T10:31:47.667Z,99361.92
2019-02-07T10:34:27.997Z,99363.98
2019-02-07T10:37:07.182Z,99355.91
2019-02-07T10:39:49.721Z,99384.80
2019-02-07T10:42:45.087Z,99381.97
2019-02-07T10:45:52.070Z,99374.22
2019-02-07T10:48:45.737Z,99357.44
2019-02-07T10:51:43.886Z,99372.66
2019-02-07T10:54:22.786Z,99376.28
2019-02-07T10:57:16.589Z,99371.11
2019-02-07T11:00:22.883Z,99372.27
2019-02-07T11:03:17.169Z,99372.48
2019-02-07T11:06:11.721Z,99355.69
2019-02-07T11:09:05.540Z,99359.45
2019-02-07T11:11:55.776Z,99367.77
2019-02-07T11:14:51.860Z,99350.91
2019-02-07T11:17:40.003Z,99344.36
2019-02-07T11:20:24.609Z,99352.92
2019-02-07T11:23:13.586Z,99342.97
2019-02-07T11:25:54.272Z,99343.64
2019-02-07T11:28:38.645Z,99339.52
2019-02-07T11:31:36.003Z,99339.08
2019-02-07T11:34:27.361Z,99342.92
2019-02-07T11:37:31.129Z,99346.91
2019-02-07T11:40:18.042Z,99349.81
2019-02-07T11:43:03.282Z,99345.44
2019-02-07T11:45:59.245Z,99346.63
2019-02-07T11:48:53.666Z,99338.81
2019-02-07T11:51:51.506Z,99345.59
2019-02-07T11:54:38.930Z,99340.25
2019-02-07T11:57:35.570Z,99339.56
2019-02-07T12:00:32.522Z,99343.62
2019-02-07T12:03:17.795Z,99341.70
2019-02-07T12:06:12.453Z,99346.47
2019-02-07T12:08:51.387Z,99337.16
2019-02-07T12:11:48.686Z,99334.66
2019-02-07T12:14:54.817Z,99333.69
2019-02-07T12:17:56.196Z,99325.25
2019-02-07T12:20:43.927Z,99330.03
2019-02-07T12:23:35.661Z,99322.65
2019-02-07T12:26:22.049Z,99319.89
2019-02-07T12:29:08.149Z,99318.36
2019-02-07T12:31:54.040Z,99310.64
2019-02-07T12:34:32.550Z,99318.94
2019-02-07T12:37:27.866Z,99311.54
2019-02-07T12:40:08.120Z,99309.73
2019-02-07T12:43:03.131Z,99320.85
2019-02-07T12:46:13.905Z,99321.80
2019-02-07T12:49:14.542Z,99323.91
2019-02-07T12:52:06.364Z,99326.59
2019-02-07T12:54:51.782Z,99332.48
2019-02-07T12:57:49.201Z,99328.52
2019-02-07T13:00:45.100Z,99326.78
2019-02-07T13:03:49.655Z,99323.13
2019-02-07T13:06:28.320Z,99324.09
2019-02-07T13:09:25.123Z,99322.37
2019-02-07T13:12:12.651Z,99316.61
2019-02-07T13:14:58.017Z,99336.19
2019-02-07T13:17:54.057Z,99312.98
2019-02-07T13:20:33.652Z,99306.50
2019-02-07T13:23:26.581Z,99296.12
2019-02-07T13:26:22.523Z,99292.50
2019-02-07T13:29:16.674Z,99289.60
2019-02-07T13:32:05.062Z,99294.17
2019-02-07T13:34:46.903Z,99286.92
2019-02-07T13:37:41.708Z,99285.08
2019-02-07T13:40:43.989Z,99293.39
2019-02-07T13:43:28.437Z,99294.54
2019-02-07T13:46:25.387Z,99286.31
2019-02-07T13:49:25.723Z,99287.27
2019-02-07T13:52:13.908Z,99287.29
2019-02-07T13:54:59.501Z,99291.78
2019-02-07T13:57:40.763Z,99290.94
2019-02-07T14:00:25.853Z,99307.66
2019-02-07T14:03:23.868Z,99309.70
2019-02-07T14:06:21.229Z,99293.17
2019-02-07T14:09:05.886Z,99280.41
2019-02-07T14:12:02.835Z,99310.59
2019-02-07T14:14:54.167Z,99313.97
2019-02-07T14:17:44.814Z,99291.03
2019-02-07T14:20:26.014Z,99306.43
2019-02-07T14:23:19.296Z,99296.33
2019-02-07T14:26:09.131Z,99317.20
2019-02-07T14:28:56.577Z,99307.37
2019-02-07T14:31:53.463Z,99314.72
2019-02-07T14:34:59.510Z,99316.01
2019-02-07T14:37:49.398Z,99313.66
2019-02-07T14:40:33.861Z,99323.39
2019-02-07T14:43:33.366Z,99325.97
2019-02-07T14:46:25.960Z,99339.10
2019-02-07T14:48:59.598Z,99330.05
2019-02-07T14:51:33.661Z,99328.81
2019-02-07T14:54:08.818Z,99348.39
2019-02-07T14:56:43.328Z,99345.16
2019-02-07T14:59:17.783Z,99339.97
2019-02-07T15:01:57.858Z,99342.53
2019-02-07T15:04:34.699Z,99350.09
2019-02-07T15:07:09.607Z,99344.74
2019-02-07T15:09:45.961Z,99351.47
2019-02-07T15:12:22.316Z,99358.08
2019-02-07T15:14:57.951Z,99340.92
2019-02-07T15:17:33.269Z,99365.00
2019-02-07T15:20:08.447Z,99353.84
2019-02-07T15:22:41.562Z,99341.16
2019-02-07T15:25:14.693Z,99344.83
2019-02-07T15:27:47.802Z,99354.27
2019-02-07T15:30:22.374Z,99367.63
2019-02-07T15:32:58.762Z,99353.67
2019-02-07T15:35:40.237Z,99355.11
2019-02-07T15:38:14.770Z,99368.05
2019-02-07T15:40:50.375Z,99372.80
2019-02-07T15:43:23.574Z,99356.48
2019-02-07T15:45:57.857Z,99357.75
2019-02-07T15:48:31.470Z,99344.00
2019-02-07T15:51:06.077Z,99355.38
2019-02-07T15:53:40.711Z,99351.73
2019-02-07T15:56:16.061Z,99351.99
2019-02-07T15:59:00.717Z,99357.99
2019-02-07T16:01:52.957Z,99362.78
2019-02-07T16:04:41.437Z,99358.88
2019-02-07T16:07:19.332Z,99349.00
2019-02-07T16:09:53.972Z,99362.95
2019-02-07T16:12:27.469Z,99351.88
2019-02-07T16:15:05.337Z,99359.91
2019-02-07T16:17:38.345Z,99364.20
2019-02-07T16:20:17.677Z,99351.28
2019-02-07T16:22:54.075Z,99365.45
2019-02-07T16:25:33.360Z,99375.44
2019-02-07T16:28:08.294Z,99376.92
2019-02-07T16:30:44.413Z,99376.56
2019-02-07T16:33:17.224Z,99370.53
2019-02-07T16:35:51.512Z,99369.28
2019-02-07T16:38:27.615Z,99381.06
2019-02-07T16:41:00.713Z,99377.97
2019-02-07T16:43:35.999Z,99387.56
2019-02-07T16:46:11.679Z,99387.55
2019-02-07T16:48:47.211Z,99386.28
2019-02-07T16:51:20.965Z,99382.22
2019-02-07T16:53:55.512Z,99381.97
2019-02-07T16:56:30.681Z,99388.16
2019-02-07T16:59:03.981Z,99399.05
2019-02-07T17:01:43.826Z,99404.59
2019-02-07T17:04:16.565Z,99415.05
2019-02-07T17:06:51.763Z,99396.95
2019-02-07T17:09:32.406Z,99408.38
2019-02-07T17:12:06.195Z,99412.89
2019-02-07T17:14:43.611Z,99419.89
2019-02-07T17:17:22.499Z,99423.45
2019-02-07T17:19:57.994Z,99432.22
2019-02-07T17:22:33.368Z,99430.88
2019-02-07T17:25:09.470Z,99438.52
2019-02-07T17:27:42.281Z,99440.99
2019-02-07T17:30:19.172Z,99445.17
2019-02-07T17:33:01.762Z,99446.42
2019-02-07T17:35:36.932Z,99451.19
2019-02-07T17:38:15.235Z,99458.38
2019-02-07T17:40:50.039Z,99451.84
2019-02-07T17:43:24.524Z,99453.53
2019-02-07T17:45:58.211Z,99448.92
2019-02-07T17:48:34.152Z,99455.25
2019-02-07T17:51:09.454Z,99462.01
2019-02-07T17:53:42.815Z,99468.06
2019-02-07T17:56:17.390Z,99469.58
2019-02-07T17:58:51.573Z,99475.58
2019-02-07T18:01:33.211Z,99477.30
2019-02-07T18:04:07.673Z,99487.11
2019-02-07T18:06:44.821Z,99485.53
2019-02-07T18:09:20.376Z,99490.37
2019-02-07T18:11:56.555Z,99493.49
2019-02-07T18:14:31.750Z,99500.38
2019-02-07T18:17:10.345Z,99513.70
2019-02-07T18:19:48.684Z,99514.28
2019-02-07T18:22:35.503Z,99520.27
2019-02-07T18:25:17.451Z,99527.42
2019-02-07T18:27:55.160Z,99531.28
2019-02-07T18:30:45.444Z,99530.20
2019-02-07T18:33:34.987Z,99530.91
2019-02-07T18:36:21.711Z,99535.86
2019-02-07T18:39:01.552Z,99548.31
2019-02-07T18:41:37.412Z,99536.30
2019-02-07T18:44:14.054Z,99545.52
2019-02-07T18:46:52.857Z,99543.29
2019-02-07T18:49:34.303Z,99539.66
2019-02-07T18:52:16.736Z,99543.69
2019-02-07T18:55:01.923Z,99548.83
2019-02-07T18:57:41.397Z,99551.04
2019-02-07T19:00:25.664Z,99552.22
2019-02-07T19:03:23.340Z,99552.36
2019-02-07T19:05:59.708Z,99547.91
2019-02-07T19:08:34.661Z,99551.13
2019-02-07T19:11:10.142Z,99551.09
2019-02-07T19:13:44.327Z,99552.23
2019-02-07T19:16:19.898Z,99553.83
2019-02-07T19:19:30.286Z,99550.65
2019-02-07T19:22:06.949Z,99555.46
2019-02-07T19:24:41.161Z,99557.28
2019-02-07T19:27:17.351Z,99563.06
2019-02-07T19:29:52.606Z,99564.48
2019-02-07T19:32:27.559Z,99569.61
2019-02-07T19:35:09.195Z,99560.28
2019-02-07T19:37:45.686Z,99578.39
2019-02-07T19:40:30.981Z,99582.56
2019-02-07T19:43:05.137Z,99583.80
2019-02-07T19:45:41.356Z,99583.92
2019-02-07T19:48:18.404Z,99578.88
2019-02-07T19:50:52.335Z,99582.52
2019-02-07T19:53:30.708Z,99589.31
2019-02-07T19:56:09.643Z,99590.55
2019-02-07T19:58:44.334Z,99585.70
2019-02-07T20:01:21.798Z,99590.95
2019-02-07T20:04:00.945Z,99597.91
2019-02-07T20:07:09.217Z,99598.98
2019-02-07T20:10:10.091Z,99603.00
2019-02-07T20:12:47.290Z,99603.84
2019-02-07T20:15:35.192Z,99607.52
2019-02-07T20:18:24.901Z,99601.64
2019-02-07T20:21:16.388Z,99608.77
2019-02-07T20:24:07.243Z,99608.78
2019-02-07T20:26:52.906Z,99613.13
2019-02-07T20:29:45.302Z,99627.02
2019-02-07T20:32:29.208Z,99628.66
2019-02-07T20:35:19.313Z,99631.70
2019-02-07T20:37:58.423Z,99637.54
2019-02-07T20:40:42.759Z,99634.06
2019-02-07T20:43:24.563Z,99639.80
2019-02-07T20:46:09.852Z,99635.84
2019-02-07T20:48:54.777Z,99632.14
2019-02-07T20:51:33.259Z,99638.01
2019-02-07T20:54:07.589Z,99641.38
2019-02-07T20:56:43.922Z,99645.66
2019-02-07T20:59:18.556Z,99645.33
2019-02-07T21:01:52.849Z,99646.71
2019-02-07T21:04:27.889Z,99651.11
2019-02-07T21:07:06.928Z,99658.65
2019-02-07T21:09:41.981Z,99664.89
2019-02-07T21:12:15.761Z,99665.77
2019-02-07T21:14:53.266Z,99669.67
2019-02-07T21:17:27.439Z,99672.97
2019-02-07T21:20:11.586Z,99676.61
2019-02-07T21:22:50.738Z,99679.04
2019-02-07T21:25:41.464Z,99676.95
2019-02-07T21:28:15.837Z,99684.38
2019-02-07T21:30:49.713Z,99686.30
2019-02-07T21:33:25.891Z,99686.19
2019-02-07T21:36:00.448Z,99688.95
2019-02-07T21:38:35.760Z,99699.70
2019-02-07T21:41:09.194Z,99699.13
2019-02-07T21:43:44.342Z,99689.62
2019-02-07T21:46:17.734Z,99691.81
2019-02-07T21:48:58.445Z,99695.28
2019-02-07T21:51:37.016Z,99692.25
2019-02-07T21:54:13.106Z,99695.63
2019-02-07T21:56:47.418Z,99709.34
2019-02-07T21:59:22.979Z,99697.11
2019-02-07T22:01:56.607Z,99712.42
2019-02-07T22:04:30.065Z,99709.16
2019-02-07T22:07:07.548Z,99714.03
2019-02-07T22:09:40.510Z,99721.63
2019-02-07T22:12:16.053Z,99716.99
2019-02-07T22:14:50.344Z,99720.41
2019-02-07T22:17:24.514Z,99720.41
2019-02-07T22:19:57.333Z,99727.36
2019-02-07T22:22:31.321Z,99723.41
2019-02-07T22:25:04.925Z,99714.64
2019-02-07T22:27:37.716Z,99724.41
2019-02-07T22:30:20.680Z,99720.50
2019-02-07T22:32:56.520Z,99728.53
2019-02-07T22:35:31.053Z,99731.46
2019-02-07T22:38:09.357Z,99736.73
2019-02-07T22:40:43.731Z,99737.95
2019-02-07T22:43:18.066Z,99744.19
2019-02-07T22:45:50.913Z,99737.08
2019-02-07T22:48:25.177Z,99736.85
2019-02-07T22:50:59.669Z,99743.19
2019-02-07T22:53:36.323Z,99741.48
2019-02-07T22:56:09.984Z,99745.52
2019-02-07T22:58:44.099Z,99745.44
2019-02-07T23:01:44.150Z,99743.20
2019-02-07T23:04:18.132Z,99741.26
2019-02-07T23:06:53.621Z,99746.56
2019-02-07T23:09:27.892Z,99748.27
2019-02-07T23:12:01.517Z,99747.21
2019-02-07T23:14:35.367Z,99745.12
2019-02-07T23:17:09.177Z,99746.23
2019-02-07T23:19:42.867Z,99748.21
2019-02-07T23:22:17.366Z,99748.77
2019-02-07T23:24:51.113Z,99753.45
2019-02-07T23:27:24.579Z,99747.72
2019-02-07T23:29:58.464Z,99751.58
2019-02-07T23:32:33.114Z,99754.28
2019-02-07T23:35:07.042Z,99755.72
2019-02-07T23:37:40.949Z,99753.17
2019-02-07T23:40:15.462Z,99756.37
2019-02-07T23:42:49.145Z,99757.31
2019-02-07T23:45:23.174Z,99760.84
2019-02-07T23:47:57.076Z,99763.05
2019-02-07T23:50:30.648Z,99763.16
2019-02-07T23:53:14.061Z,99761.28
2019-02-07T23:55:48.876Z,99761.88
2019-02-07T23:58:22.326Z,99759.42
